Time;durP1;ratioP1;P1;durP2;ratioP2;P2;SDS_P1;SDS_P2;PMS_P1;PMS_P2;Temp;Humidity;BMP_temperature;BMP_pressure;BME280_temperature;BME280_humidity;BME280_pressure;Samples;Min_cycle;Max_cycle;Signal;HPM_P1;HPM_P2
2023/12/10 00:00:04;;;;;;;0.50;0.50;;;;;;;;;;5039215;28;20572;-68
2023/12/10 00:02:30;;;;;;;0.40;0.40;;;;;;;;;;5040405;28;20040;-66
2023/12/10 00:04:55;;;;;;;0.40;0.40;;;;;;;;;;5040112;28;20055;-65
2023/12/10 00:07:20;;;;;;;0.40;0.40;;;;;;;;;;5039637;28;20120;-67
2023/12/10 00:09:46;;;;;;;0.32;0.32;;;;;;;;;;5039759;28;20037;-66
2023/12/10 00:12:11;;;;;;;0.30;0.30;;;;;;;;;;5039833;28;20437;-66
2023/12/10 00:14:36;;;;;;;0.30;0.30;;;;;;;;;;5040297;28;20045;-65
2023/12/10 00:17:02;;;;;;;0.38;0.38;;;;;;;;;;5039468;28;20044;-67
2023/12/10 00:19:27;;;;;;;0.30;0.30;;;;;;;;;;5040248;28;20430;-71
2023/12/10 00:21:53;;;;;;;0.40;0.40;;;;;;;;;;5059662;28;20495;-65
2023/12/10 00:24:18;;;;;;;0.60;0.50;;;;;;;;;;5060055;28;20056;-67
2023/12/10 00:26:45;;;;;;;0.40;0.40;;;;;;;;;;5060399;28;20098;-67
2023/12/10 00:29:10;;;;;;;0.30;0.30;;;;;;;;;;5059212;28;20032;-67
2023/12/10 00:31:36;;;;;;;0.20;0.20;;;;;;;;;;5059306;28;20492;-66
2023/12/10 00:34:01;;;;;;;0.30;0.30;;;;;;;;;;5059631;28;20488;-65
2023/12/10 00:36:27;;;;;;;0.43;0.43;;;;;;;;;;5060895;28;20052;-68
2023/12/10 00:38:55;;;;;;;0.30;0.30;;;;;;;;;;5059143;28;20111;-67
2023/12/10 00:41:21;;;;;;;0.40;0.40;;;;;;;;;;5060445;28;20102;-66
2023/12/10 00:43:46;;;;;;;0.50;0.50;;;;;;;;;;5056451;28;20131;-66
2023/12/10 00:46:12;;;;;;;0.40;0.30;;;;;;;;;;5021757;28;20156;-66
2023/12/10 00:48:37;;;;;;;0.30;0.30;;;;;;;;;;5026285;28;20676;-68
2023/12/10 00:51:03;;;;;;;0.30;0.30;;;;;;;;;;5020290;28;20076;-66
2023/12/10 00:53:29;;;;;;;0.35;0.35;;;;;;;;;;5020612;28;20098;-66
2023/12/10 00:55:54;;;;;;;0.30;0.30;;;;;;;;;;5020185;28;20069;-66
2023/12/10 00:58:20;;;;;;;0.30;0.30;;;;;;;;;;5021065;28;20124;-66
2023/12/10 01:00:45;;;;;;;0.30;0.30;;;;;;;;;;5020228;28;20439;-67
2023/12/10 01:03:11;;;;;;;0.30;0.30;;;;;;;;;;5021750;28;20057;-67
2023/12/10 01:05:36;;;;;;;0.30;0.30;;;;;;;;;;5019854;28;20052;-67
2023/12/10 01:08:03;;;;;;;0.40;0.40;;;;;;;;;;5020503;28;20045;-66
2023/12/10 01:10:28;;;;;;;0.30;0.30;;;;;;;;;;5019611;28;20056;-66
2023/12/10 01:12:54;;;;;;;0.30;0.30;;;;;;;;;;5022412;28;20042;-66
2023/12/10 01:15:29;;;;;;;0.38;0.38;;;;;;;;;;5022676;28;20091;-66
2023/12/10 01:18:01;;;;;;;0.30;0.30;;;;;;;;;;5038381;28;20040;-66
2023/12/10 01:20:30;;;;;;;;;;;;;;;;;;5039155;28;20158;-66
2023/12/10 01:22:57;;;;;;;0.32;0.32;;;;;;;;;;5037771;28;20003;-66
2023/12/10 01:25:24;;;;;;;0.30;0.30;;;;;;;;;;5038948;28;20088;-66
2023/12/10 01:27:51;;;;;;;0.30;0.30;;;;;;;;;;5038193;28;20052;-66
2023/12/10 01:30:16;;;;;;;0.32;0.30;;;;;;;;;;5036986;28;20045;-66
2023/12/10 01:32:41;;;;;;;0.68;0.40;;;;;;;;;;5037240;28;20053;-66
2023/12/10 01:35:08;;;;;;;0.40;0.40;;;;;;;;;;5036387;28;20090;-66
2023/12/10 01:37:33;;;;;;;0.43;0.43;;;;;;;;;;5036715;28;20094;-68
2023/12/10 01:39:59;;;;;;;1.92;0.40;;;;;;;;;;5036605;28;20049;-68
2023/12/10 01:42:24;;;;;;;0.20;0.20;;;;;;;;;;5038118;28;20049;-68
2023/12/10 01:44:49;;;;;;;0.38;0.30;;;;;;;;;;5038434;28;20053;-67
2023/12/10 01:47:17;;;;;;;0.40;0.40;;;;;;;;;;5038298;28;20049;-67
2023/12/10 01:49:42;;;;;;;0.38;0.38;;;;;;;;;;5037780;28;20033;-68
2023/12/10 01:52:08;;;;;;;0.30;0.30;;;;;;;;;;5036067;28;20431;-67
2023/12/10 01:54:34;;;;;;;2.00;0.98;;;;;;;;;;5038329;28;20040;-67
2023/12/10 01:56:59;;;;;;;9.85;0.63;;;;;;;;;;5038199;28;20096;-68
2023/12/10 01:59:25;;;;;;;0.43;0.40;;;;;;;;;;5038308;28;20059;-68
2023/12/10 02:01:50;;;;;;;0.40;0.40;;;;;;;;;;5037499;28;20048;-68
2023/12/10 02:04:18;;;;;;;0.30;0.30;;;;;;;;;;5037134;28;20049;-68
2023/12/10 02:06:46;;;;;;;2.90;0.40;;;;;;;;;;5038332;28;20515;-68
2023/12/10 02:09:15;;;;;;;0.47;0.47;;;;;;;;;;5037953;28;20055;-67
2023/12/10 02:11:40;;;;;;;2.80;0.57;;;;;;;;;;5037839;28;20649;-68
2023/12/10 02:14:06;;;;;;;3.58;0.75;;;;;;;;;;5037132;28;20161;-68
2023/12/10 02:16:31;;;;;;;0.30;0.30;;;;;;;;;;5036708;28;20429;-68
2023/12/10 02:18:57;;;;;;;2.28;0.52;;;;;;;;;;5037885;28;20056;-68
2023/12/10 02:21:22;;;;;;;0.55;0.45;;;;;;;;;;5037749;28;20049;-68
2023/12/10 02:23:59;;;;;;;0.47;0.47;;;;;;;;;;5036906;28;20045;-67
2023/12/10 02:26:24;;;;;;;2.05;0.50;;;;;;;;;;5037397;28;20072;-67
2023/12/10 02:28:50;;;;;;;2.50;0.90;;;;;;;;;;5038262;28;20103;-68
2023/12/10 02:31:18;;;;;;;0.95;0.90;;;;;;;;;;5037706;28;20523;-68
2023/12/10 02:33:43;;;;;;;0.40;0.40;;;;;;;;;;5037228;28;20087;-68
2023/12/10 02:36:09;;;;;;;0.55;0.55;;;;;;;;;;5037249;28;20085;-67
2023/12/10 02:38:34;;;;;;;0.43;0.43;;;;;;;;;;5038252;28;20450;-67
2023/12/10 02:41:00;;;;;;;1.25;0.40;;;;;;;;;;5037924;28;20858;-68
2023/12/10 02:43:25;;;;;;;1.05;0.40;;;;;;;;;;5037700;28;20103;-67
2023/12/10 02:45:51;;;;;;;1.10;0.50;;;;;;;;;;5037487;28;20461;-67
2023/12/10 02:48:21;;;;;;;0.35;0.35;;;;;;;;;;5036856;28;20098;-67
2023/12/10 02:50:48;;;;;;;0.30;0.30;;;;;;;;;;5037821;28;20095;-67
2023/12/10 02:53:13;;;;;;;0.30;0.30;;;;;;;;;;5037680;28;20098;-67
2023/12/10 02:55:38;;;;;;;0.50;0.40;;;;;;;;;;5037075;28;20048;-67
2023/12/10 02:58:04;;;;;;;0.70;0.47;;;;;;;;;;5036665;28;20060;-68
2023/12/10 03:00:29;;;;;;;0.20;0.20;;;;;;;;;;5037306;28;20142;-68
2023/12/10 03:02:55;;;;;;;1.83;0.38;;;;;;;;;;5037616;28;20037;-67
2023/12/10 03:05:21;;;;;;;0.38;0.38;;;;;;;;;;5037184;28;20510;-67
2023/12/10 03:07:46;;;;;;;0.40;0.40;;;;;;;;;;5037238;28;20041;-68
2023/12/10 03:10:12;;;;;;;0.73;0.47;;;;;;;;;;5036566;28;20457;-67
2023/12/10 03:12:37;;;;;;;0.47;0.32;;;;;;;;;;5037631;28;20052;-67
2023/12/10 03:15:03;;;;;;;0.40;0.40;;;;;;;;;;5037018;28;20056;-67
2023/12/10 03:17:28;;;;;;;0.68;0.52;;;;;;;;;;5037471;28;20043;-67
2023/12/10 03:19:54;;;;;;;3.47;1.27;;;;;;;;;;5041341;28;20697;-68
2023/12/10 03:22:19;;;;;;;0.50;0.50;;;;;;;;;;5037897;28;20049;-68
2023/12/10 03:24:44;;;;;;;0.52;0.50;;;;;;;;;;5037469;28;20041;-67
2023/12/10 03:27:10;;;;;;;0.80;0.57;;;;;;;;;;5037594;28;20652;-68
2023/12/10 03:29:35;;;;;;;0.40;0.40;;;;;;;;;;5048402;28;20032;-68
2023/12/10 03:32:01;;;;;;;0.40;0.40;;;;;;;;;;5047524;28;20066;-67
2023/12/10 03:34:26;;;;;;;1.40;0.50;;;;;;;;;;5055760;28;20514;-67
2023/12/10 03:36:52;;;;;;;2.95;0.70;;;;;;;;;;5059263;28;20100;-68
2023/12/10 03:39:17;;;;;;;0.93;0.38;;;;;;;;;;5058526;28;20048;-67
2023/12/10 03:41:42;;;;;;;0.40;0.40;;;;;;;;;;5043585;28;20059;-68
2023/12/10 03:44:08;;;;;;;0.60;0.40;;;;;;;;;;5044136;28;20114;-67
2023/12/10 03:46:33;;;;;;;1.95;0.60;;;;;;;;;;5042467;28;20044;-68
2023/12/10 03:48:58;;;;;;;2.83;0.70;;;;;;;;;;5055712;28;20044;-67
2023/12/10 03:51:24;;;;;;;2.30;0.50;;;;;;;;;;5058257;28;20226;-68
2023/12/10 03:53:49;;;;;;;1.75;0.40;;;;;;;;;;5050428;28;20128;-67
2023/12/10 03:56:14;;;;;;;1.42;0.40;;;;;;;;;;5058369;28;20044;-68
2023/12/10 03:58:40;;;;;;;1.98;1.00;;;;;;;;;;5058611;28;20398;-68
2023/12/10 04:01:05;;;;;;;0.40;0.40;;;;;;;;;;5058757;28;20056;-68
2023/12/10 04:03:31;;;;;;;1.27;0.60;;;;;;;;;;5049419;28;20048;-69
2023/12/10 04:05:56;;;;;;;0.93;0.47;;;;;;;;;;5059393;28;20044;-68
2023/12/10 04:08:21;;;;;;;0.40;0.40;;;;;;;;;;5054781;28;20101;-67
2023/12/10 04:10:47;;;;;;;1.45;0.50;;;;;;;;;;5058561;28;20143;-68
2023/12/10 04:13:12;;;;;;;0.68;0.50;;;;;;;;;;5051916;28;20045;-68
2023/12/10 04:15:37;;;;;;;2.85;0.73;;;;;;;;;;5049796;28;20121;-68
2023/12/10 04:18:03;;;;;;;3.72;0.98;;;;;;;;;;5047750;28;20045;-68
2023/12/10 04:20:28;;;;;;;1.65;0.68;;;;;;;;;;5030335;28;20107;-68
2023/12/10 04:22:54;;;;;;;1.73;0.93;;;;;;;;;;5040114;28;20492;-67
2023/12/10 04:25:19;;;;;;;1.98;0.93;;;;;;;;;;5040025;28;20049;-68
2023/12/10 04:27:44;;;;;;;2.25;0.57;;;;;;;;;;5046172;28;20514;-68
2023/12/10 04:30:10;;;;;;;1.05;0.82;;;;;;;;;;5038350;28;20060;-68
2023/12/10 04:32:35;;;;;;;1.83;0.88;;;;;;;;;;5039990;28;20598;-68
2023/12/10 04:35:01;;;;;;;0.40;0.40;;;;;;;;;;5039836;28;20032;-68
2023/12/10 04:37:26;;;;;;;0.47;0.47;;;;;;;;;;5046914;28;20618;-68
2023/12/10 04:39:53;;;;;;;1.60;0.95;;;;;;;;;;5052907;28;20106;-68
2023/12/10 04:42:18;;;;;;;1.05;0.90;;;;;;;;;;5058404;28;20040;-68
2023/12/10 04:44:44;;;;;;;0.95;0.40;;;;;;;;;;5058866;28;20093;-68
2023/12/10 04:47:09;;;;;;;0.93;0.93;;;;;;;;;;5056755;28;20538;-68
2023/12/10 04:49:35;;;;;;;5.28;0.80;;;;;;;;;;5057221;28;20036;-68
2023/12/10 04:52:00;;;;;;;1.00;0.47;;;;;;;;;;5059024;28;20045;-68
2023/12/10 04:54:26;;;;;;;2.65;0.60;;;;;;;;;;5057702;28;20048;-68
2023/12/10 04:56:51;;;;;;;0.75;0.50;;;;;;;;;;5058674;28;20143;-68
2023/12/10 04:59:17;;;;;;;0.63;0.40;;;;;;;;;;5056473;28;20052;-69
2023/12/10 05:01:42;;;;;;;8.23;1.73;;;;;;;;;;5034112;28;20059;-68
2023/12/10 05:04:08;;;;;;;2.30;1.00;;;;;;;;;;5058086;28;20499;-68
2023/12/10 05:06:33;;;;;;;2.47;0.82;;;;;;;;;;5057168;28;20072;-68
2023/12/10 05:08:59;;;;;;;2.65;1.02;;;;;;;;;;5058214;28;20059;-68
2023/12/10 05:11:24;;;;;;;3.83;1.38;;;;;;;;;;5052874;28;20044;-68
2023/12/10 05:13:49;;;;;;;2.38;1.05;;;;;;;;;;5057064;28;20522;-68
2023/12/10 05:16:15;;;;;;;0.75;0.73;;;;;;;;;;5055279;28;20324;-71
2023/12/10 05:18:40;;;;;;;1.15;0.70;;;;;;;;;;5057629;28;20102;-71
2023/12/10 05:21:06;;;;;;;5.05;1.25;;;;;;;;;;5055640;28;20049;-68
2023/12/10 05:23:31;;;;;;;7.45;1.08;;;;;;;;;;5055899;28;20044;-71
2023/12/10 05:25:57;;;;;;;11.38;1.40;;;;;;;;;;5057204;28;20434;-68
2023/12/10 05:28:22;;;;;;;5.32;1.88;;;;;;;;;;5056088;28;20502;-70
2023/12/10 05:30:48;;;;;;;2.15;1.00;;;;;;;;;;5055923;28;20040;-68
2023/12/10 05:33:13;;;;;;;3.80;1.20;;;;;;;;;;5054701;28;20513;-68
2023/12/10 05:35:39;;;;;;;10.95;1.83;;;;;;;;;;5048784;28;20140;-68
2023/12/10 05:38:07;;;;;;;11.65;1.55;;;;;;;;;;5056827;28;20055;-68
2023/12/10 05:40:33;;;;;;;4.18;1.13;;;;;;;;;;5056035;28;20071;-68
2023/12/10 05:42:58;;;;;;;2.92;0.90;;;;;;;;;;5054657;28;20123;-68
2023/12/10 05:45:23;;;;;;;1.75;0.85;;;;;;;;;;5054936;28;20044;-68
2023/12/10 05:47:49;;;;;;;3.58;1.23;;;;;;;;;;5054177;28;20048;-68
2023/12/10 05:50:14;;;;;;;9.02;1.35;;;;;;;;;;5056312;28;20529;-68
2023/12/10 05:52:40;;;;;;;8.52;0.80;;;;;;;;;;5048434;28;20052;-68
2023/12/10 05:55:06;;;;;;;2.70;0.98;;;;;;;;;;5054850;28;20644;-68
2023/12/10 05:57:31;;;;;;;4.80;0.75;;;;;;;;;;5053711;28;20131;-69
2023/12/10 05:59:57;;;;;;;7.43;1.67;;;;;;;;;;5055603;28;20052;-68
2023/12/10 06:02:22;;;;;;;4.07;1.50;;;;;;;;;;5053929;28;20037;-68
2023/12/10 06:04:47;;;;;;;4.32;1.02;;;;;;;;;;5054594;28;20048;-68
2023/12/10 06:07:13;;;;;;;8.10;1.48;;;;;;;;;;5055638;28;20044;-68
2023/12/10 06:09:38;;;;;;;1.38;0.65;;;;;;;;;;5054423;28;20036;-68
2023/12/10 06:12:04;;;;;;;6.47;1.50;;;;;;;;;;5054743;28;21128;-68
2023/12/10 06:14:29;;;;;;;1.85;0.98;;;;;;;;;;5054103;28;20057;-68
2023/12/10 06:16:55;;;;;;;4.60;1.15;;;;;;;;;;5054429;28;20090;-68
2023/12/10 06:19:20;;;;;;;3.50;0.90;;;;;;;;;;5040336;28;20070;-68
2023/12/10 06:21:46;;;;;;;12.15;2.08;;;;;;;;;;5050177;28;20107;-68
2023/12/10 06:24:11;;;;;;;5.78;1.63;;;;;;;;;;5055203;28;20040;-68
2023/12/10 06:26:37;;;;;;;6.63;1.00;;;;;;;;;;5052616;28;20053;-68
2023/12/10 06:29:02;;;;;;;4.30;1.35;;;;;;;;;;5044419;28;20060;-68
2023/12/10 06:31:27;;;;;;;6.25;1.42;;;;;;;;;;5040354;28;20128;-70
2023/12/10 06:33:53;;;;;;;5.45;0.82;;;;;;;;;;5038071;28;20118;-68
2023/12/10 06:36:19;;;;;;;5.70;1.20;;;;;;;;;;5042495;28;20547;-68
2023/12/10 06:38:44;;;;;;;14.27;1.45;;;;;;;;;;5041090;28;20040;-68
2023/12/10 06:41:10;;;;;;;2.70;1.20;;;;;;;;;;5037602;28;20519;-67
2023/12/10 06:43:35;;;;;;;3.95;0.57;;;;;;;;;;5044030;28;20048;-67
2023/12/10 06:46:00;;;;;;;2.47;1.15;;;;;;;;;;5040178;28;20143;-67
2023/12/10 06:48:26;;;;;;;5.47;1.20;;;;;;;;;;5032853;28;20427;-70
2023/12/10 06:50:52;;;;;;;6.13;1.23;;;;;;;;;;5005790;28;20105;-68
2023/12/10 06:53:17;;;;;;;4.95;1.42;;;;;;;;;;5022482;28;20048;-68
2023/12/10 06:55:44;;;;;;;2.75;0.90;;;;;;;;;;5022393;28;20045;-69
2023/12/10 06:58:09;;;;;;;3.65;1.50;;;;;;;;;;5024946;28;20063;-69
2023/12/10 07:00:37;;;;;;;9.18;1.38;;;;;;;;;;5035486;28;20068;-69
2023/12/10 07:03:03;;;;;;;6.72;1.05;;;;;;;;;;5036617;28;20072;-70
2023/12/10 07:05:28;;;;;;;6.13;1.52;;;;;;;;;;5036309;28;20064;-70
2023/12/10 07:07:53;;;;;;;4.80;1.05;;;;;;;;;;5034656;28;20060;-70
2023/12/10 07:10:19;;;;;;;6.35;1.42;;;;;;;;;;5045963;28;20155;-70
2023/12/10 07:12:44;;;;;;;5.95;1.40;;;;;;;;;;5050144;28;20036;-70
2023/12/10 07:15:10;;;;;;;6.82;1.15;;;;;;;;;;5040568;28;20740;-70
2023/12/10 07:17:36;;;;;;;6.10;1.30;;;;;;;;;;5039866;28;20068;-70
2023/12/10 07:20:03;;;;;;;7.40;1.35;;;;;;;;;;5023458;28;20053;-69
2023/12/10 07:22:28;;;;;;;3.70;1.17;;;;;;;;;;5038991;28;20040;-69
2023/12/10 07:24:54;;;;;;;3.80;1.10;;;;;;;;;;5039631;28;20047;-68
2023/12/10 07:27:19;;;;;;;8.50;1.17;;;;;;;;;;5040770;28;20454;-68
2023/12/10 07:29:45;;;;;;;4.43;1.20;;;;;;;;;;5037865;28;20155;-68
2023/12/10 07:32:12;;;;;;;3.47;1.08;;;;;;;;;;5039567;28;20048;-69
2023/12/10 07:34:38;;;;;;;10.98;2.28;;;;;;;;;;5040016;28;20040;-69
2023/12/10 07:37:03;;;;;;;1.98;0.82;;;;;;;;;;5040203;28;20242;-68
2023/12/10 07:39:29;;;;;;;3.13;1.23;;;;;;;;;;5040308;28;20048;-68
2023/12/10 07:41:54;;;;;;;8.88;1.88;;;;;;;;;;5039900;28;20080;-68
2023/12/10 07:44:19;;;;;;;4.15;1.58;;;;;;;;;;5039392;28;20041;-68
2023/12/10 07:46:45;;;;;;;4.68;1.23;;;;;;;;;;5040219;28;20143;-68
2023/12/10 07:49:10;;;;;;;5.55;1.05;;;;;;;;;;5030745;28;20045;-68
2023/12/10 07:51:36;;;;;;;16.35;1.90;;;;;;;;;;5036734;28;20048;-68
2023/12/10 07:54:01;;;;;;;5.25;1.40;;;;;;;;;;5035172;28;20090;-68
2023/12/10 07:56:27;;;;;;;6.75;1.02;;;;;;;;;;5037135;28;20052;-67
2023/12/10 07:58:52;;;;;;;3.17;1.15;;;;;;;;;;5037408;28;20400;-68
2023/12/10 08:01:18;;;;;;;5.10;1.20;;;;;;;;;;5037205;28;20143;-67
2023/12/10 08:03:43;;;;;;;2.78;0.90;;;;;;;;;;5034786;28;20421;-67
2023/12/10 08:06:08;;;;;;;3.63;1.33;;;;;;;;;;5037025;28;20041;-68
2023/12/10 08:08:34;;;;;;;4.47;1.83;;;;;;;;;;5037281;28;20059;-67
2023/12/10 08:11:00;;;;;;;7.50;1.50;;;;;;;;;;5036905;28;20075;-70
2023/12/10 08:13:25;;;;;;;8.50;1.50;;;;;;;;;;5037035;28;20135;-67
2023/12/10 08:15:50;;;;;;;7.15;1.35;;;;;;;;;;5036505;28;20822;-67
2023/12/10 08:18:16;;;;;;;7.85;1.52;;;;;;;;;;5035817;28;20040;-68
2023/12/10 08:20:41;;;;;;;2.08;1.00;;;;;;;;;;5036596;28;20053;-68
2023/12/10 08:23:07;;;;;;;6.70;1.50;;;;;;;;;;5039986;28;20043;-68
2023/12/10 08:25:32;;;;;;;4.57;1.00;;;;;;;;;;5038903;28;20041;-70
2023/12/10 08:27:58;;;;;;;4.65;1.30;;;;;;;;;;5039066;28;20055;-68
2023/12/10 08:30:23;;;;;;;3.78;1.10;;;;;;;;;;5039469;28;20053;-68
2023/12/10 08:32:48;;;;;;;4.35;1.40;;;;;;;;;;5039110;28;20037;-67
2023/12/10 08:35:14;;;;;;;5.50;1.35;;;;;;;;;;5038204;28;21006;-67
2023/12/10 08:37:40;;;;;;;3.83;1.20;;;;;;;;;;5038279;28;20049;-67
2023/12/10 08:40:06;;;;;;;9.80;1.17;;;;;;;;;;5038684;28;20053;-67
2023/12/10 08:42:31;;;;;;;2.22;0.68;;;;;;;;;;5037386;28;20210;-68
2023/12/10 08:44:59;;;;;;;6.55;1.20;;;;;;;;;;5038046;28;20040;-68
2023/12/10 08:47:24;;;;;;;6.10;0.88;;;;;;;;;;5038924;28;20047;-68
2023/12/10 08:49:51;;;;;;;6.68;1.30;;;;;;;;;;5037694;28;20040;-67
2023/12/10 08:52:16;;;;;;;7.38;1.95;;;;;;;;;;5039223;28;20044;-67
2023/12/10 08:54:42;;;;;;;2.40;0.60;;;;;;;;;;5039175;28;20123;-68
2023/12/10 08:57:08;;;;;;;4.57;1.15;;;;;;;;;;5039066;28;20153;-68
2023/12/10 08:59:33;;;;;;;9.85;1.38;;;;;;;;;;5038300;28;20048;-69
2023/12/10 09:01:58;;;;;;;1.27;1.08;;;;;;;;;;5038040;28;20044;-68
2023/12/10 09:04:24;;;;;;;3.15;1.05;;;;;;;;;;5038946;28;20136;-68
2023/12/10 09:06:49;;;;;;;5.40;1.33;;;;;;;;;;5038897;28;20052;-68
2023/12/10 09:09:14;;;;;;;5.20;1.88;;;;;;;;;;5039361;28;20682;-70
2023/12/10 09:11:41;;;;;;;11.13;1.40;;;;;;;;;;5051995;28;20059;-67
2023/12/10 09:14:07;;;;;;;4.70;1.15;;;;;;;;;;5057794;28;20709;-68
2023/12/10 09:16:33;;;;;;;1.73;0.80;;;;;;;;;;5054486;28;20111;-68
2023/12/10 09:18:58;;;;;;;4.65;1.35;;;;;;;;;;5040772;28;20041;-68
2023/12/10 09:21:24;;;;;;;7.97;1.05;;;;;;;;;;5018965;28;20041;-69
2023/12/10 09:23:50;;;;;;;4.03;1.40;;;;;;;;;;5018854;28;20041;-69
2023/12/10 09:26:15;;;;;;;1.85;1.02;;;;;;;;;;5019817;28;20052;-68
2023/12/10 09:28:40;;;;;;;3.22;1.20;;;;;;;;;;5019645;28;20049;-68
2023/12/10 09:31:06;;;;;;;6.00;1.10;;;;;;;;;;5020295;28;20133;-67
2023/12/10 09:33:31;;;;;;;8.15;1.15;;;;;;;;;;5019210;28;20045;-68
2023/12/10 09:35:57;;;;;;;8.65;1.33;;;;;;;;;;5043336;28;20083;-67
2023/12/10 09:38:22;;;;;;;1.17;0.90;;;;;;;;;;5037087;28;20095;-70
2023/12/10 09:40:48;;;;;;;3.58;1.00;;;;;;;;;;5018766;28;20076;-68
2023/12/10 09:43:13;;;;;;;4.43;1.45;;;;;;;;;;5020052;28;20063;-68
2023/12/10 09:45:38;;;;;;;6.25;1.35;;;;;;;;;;5020611;28;20068;-69
2023/12/10 09:48:04;;;;;;;3.50;0.95;;;;;;;;;;5019128;28;20041;-68
2023/12/10 09:50:32;;;;;;;1.67;1.05;;;;;;;;;;5019079;28;20068;-68
2023/12/10 09:52:57;;;;;;;3.40;1.20;;;;;;;;;;5019927;28;20052;-68
2023/12/10 09:55:22;;;;;;;8.75;0.80;;;;;;;;;;5019368;28;20090;-68
2023/12/10 09:57:48;;;;;;;5.72;1.17;;;;;;;;;;5021978;28;20048;-68
2023/12/10 10:00:14;;;;;;;5.63;1.13;;;;;;;;;;5018828;28;20064;-68
2023/12/10 10:02:40;;;;;;;5.78;1.80;;;;;;;;;;5021244;28;20056;-68
2023/12/10 10:05:09;;;;;;;6.32;1.25;;;;;;;;;;5019665;28;20041;-68
2023/12/10 10:07:35;;;;;;;5.25;0.85;;;;;;;;;;5019745;28;20045;-69
2023/12/10 10:10:01;;;;;;;2.50;0.80;;;;;;;;;;5019968;28;20092;-68
2023/12/10 10:12:30;;;;;;;2.42;0.77;;;;;;;;;;5018567;28;20098;-68
2023/12/10 10:14:57;;;;;;;2.67;0.90;;;;;;;;;;5017014;28;20106;-69
2023/12/10 10:17:29;;;;;;;9.15;2.38;;;;;;;;;;5021941;28;20041;-68
2023/12/10 10:19:55;;;;;;;2.38;0.80;;;;;;;;;;5016250;28;20560;-68
2023/12/10 10:22:22;;;;;;;4.97;1.52;;;;;;;;;;5016414;28;20140;-68
2023/12/10 10:24:48;;;;;;;3.40;1.42;;;;;;;;;;5017052;28;20623;-68
2023/12/10 10:27:13;;;;;;;3.75;1.08;;;;;;;;;;5020309;28;20114;-68
2023/12/10 10:29:40;;;;;;;2.60;1.17;;;;;;;;;;5015898;28;20927;-72
2023/12/10 10:32:08;;;;;;;1.75;1.10;;;;;;;;;;5016821;28;20049;-68
2023/12/10 10:34:34;;;;;;;7.53;1.88;;;;;;;;;;5017935;28;20049;-68
2023/12/10 10:36:59;;;;;;;5.18;1.20;;;;;;;;;;5016755;28;20037;-67
2023/12/10 10:39:25;;;;;;;7.53;1.38;;;;;;;;;;5017774;28;20389;-67
2023/12/10 10:41:51;;;;;;;13.05;0.95;;;;;;;;;;5035052;28;21920;-67
2023/12/10 10:44:17;;;;;;;3.53;0.95;;;;;;;;;;5036862;28;20037;-68
2023/12/10 10:46:42;;;;;;;3.75;1.50;;;;;;;;;;5037401;28;20142;-68
2023/12/10 10:49:08;;;;;;;3.85;1.90;;;;;;;;;;5039968;28;21031;-70
2023/12/10 10:51:34;;;;;;;1.63;1.00;;;;;;;;;;5038856;28;20049;-68
2023/12/10 10:54:03;;;;;;;6.50;1.20;;;;;;;;;;5039216;28;20048;-68
2023/12/10 10:56:29;;;;;;;4.68;1.25;;;;;;;;;;5040200;28;20045;-70
2023/12/10 10:58:54;;;;;;;4.60;1.05;;;;;;;;;;5039041;28;20118;-68
2023/12/10 11:01:38;;;;;;;4.22;1.60;;;;;;;;;;5038211;28;20059;-68
2023/12/10 11:04:04;;;;;;;6.50;1.73;;;;;;;;;;5038843;28;20045;-68
2023/12/10 11:06:29;;;;;;;1.05;0.60;;;;;;;;;;5038472;28;20052;-67
2023/12/10 11:08:57;;;;;;;5.97;0.98;;;;;;;;;;5038900;28;20991;-68
2023/12/10 11:11:24;;;;;;;3.55;1.10;;;;;;;;;;5039245;28;20044;-67
2023/12/10 11:13:50;;;;;;;3.38;1.02;;;;;;;;;;5038856;28;20771;-67
2023/12/10 11:16:16;;;;;;;7.72;1.52;;;;;;;;;;5038352;28;20048;-68
2023/12/10 11:18:51;;;;;;;2.92;0.90;;;;;;;;;;5035740;28;20048;-67
2023/12/10 11:21:18;;;;;;;3.80;0.85;;;;;;;;;;5038487;28;20095;-67
2023/12/10 11:23:43;;;;;;;5.20;1.27;;;;;;;;;;5034735;28;20051;-67
2023/12/10 11:26:09;;;;;;;11.48;1.38;;;;;;;;;;5038336;28;20431;-68
2023/12/10 11:28:34;;;;;;;3.53;0.93;;;;;;;;;;5037023;28;20041;-67
2023/12/10 11:31:00;;;;;;;2.88;1.02;;;;;;;;;;5038634;28;20075;-67
2023/12/10 11:33:26;;;;;;;0.70;0.68;;;;;;;;;;5037168;28;20051;-68
2023/12/10 11:35:54;;;;;;;4.95;1.17;;;;;;;;;;5038626;28;20128;-68
2023/12/10 11:38:19;;;;;;;2.90;0.82;;;;;;;;;;5038847;28;20037;-68
2023/12/10 11:40:44;;;;;;;4.38;1.13;;;;;;;;;;5037826;28;20059;-67
2023/12/10 11:43:10;;;;;;;5.07;1.35;;;;;;;;;;5037157;28;20136;-67
2023/12/10 11:45:36;;;;;;;3.33;1.27;;;;;;;;;;5036802;28;20045;-67
2023/12/10 11:48:03;;;;;;;7.68;1.15;;;;;;;;;;5038951;28;20041;-68
2023/12/10 11:50:31;;;;;;;2.58;0.95;;;;;;;;;;5049807;28;20044;-69
2023/12/10 11:52:56;;;;;;;3.83;0.68;;;;;;;;;;5043489;28;20098;-67
2023/12/10 11:55:21;;;;;;;4.22;1.40;;;;;;;;;;5035910;28;20051;-67
2023/12/10 11:57:47;;;;;;;2.88;1.00;;;;;;;;;;5041988;28;20059;-66
2023/12/10 12:00:13;;;;;;;4.57;1.05;;;;;;;;;;5036444;28;20128;-66
2023/12/10 12:02:43;;;;;;;1.05;0.70;;;;;;;;;;5034950;28;20045;-66
2023/12/10 12:05:10;;;;;;;2.40;1.13;;;;;;;;;;5036628;28;20168;-67
2023/12/10 12:07:36;;;;;;;4.07;0.90;;;;;;;;;;5036190;28;20043;-66
2023/12/10 12:10:01;;;;;;;3.47;1.08;;;;;;;;;;5036988;28;20045;-68
2023/12/10 12:12:27;;;;;;;2.65;0.75;;;;;;;;;;5037098;28;20048;-67
2023/12/10 12:14:53;;;;;;;2.45;1.10;;;;;;;;;;5035914;28;20052;-67
2023/12/10 12:17:19;;;;;;;2.55;0.90;;;;;;;;;;5036765;28;20045;-67
2023/12/10 12:19:45;;;;;;;4.15;0.90;;;;;;;;;;5034967;28;20049;-67
2023/12/10 12:22:11;;;;;;;6.00;1.08;;;;;;;;;;5033865;28;20148;-66
2023/12/10 12:24:43;;;;;;;2.10;0.98;;;;;;;;;;5034322;28;20128;-69
2023/12/10 12:27:09;;;;;;;2.70;1.20;;;;;;;;;;5048537;28;20029;-68
2023/12/10 12:29:35;;;;;;;3.63;1.13;;;;;;;;;;5036712;28;20071;-71
2023/12/10 12:32:04;;;;;;;1.55;0.90;;;;;;;;;;5053742;28;20088;-69
2023/12/10 12:34:30;;;;;;;7.43;1.27;;;;;;;;;;5052541;28;20044;-69
2023/12/10 12:36:56;;;;;;;5.45;1.38;;;;;;;;;;5055198;28;20098;-67
2023/12/10 12:39:23;;;;;;;2.05;0.90;;;;;;;;;;5053915;28;20048;-70
2023/12/10 12:41:48;;;;;;;4.25;1.08;;;;;;;;;;5056168;28;20058;-68
2023/12/10 12:44:14;;;;;;;4.00;0.95;;;;;;;;;;5053080;28;20151;-68
2023/12/10 12:46:40;;;;;;;3.17;0.73;;;;;;;;;;5056111;28;20079;-67
2023/12/10 12:49:08;;;;;;;5.30;1.33;;;;;;;;;;5057540;28;20048;-67
2023/12/10 12:51:35;;;;;;;6.22;1.30;;;;;;;;;;5052306;28;20127;-67
2023/12/10 12:54:01;;;;;;;4.28;0.82;;;;;;;;;;5056004;28;20044;-68
2023/12/10 12:56:26;;;;;;;4.80;1.40;;;;;;;;;;5059414;28;20093;-67
2023/12/10 12:58:53;;;;;;;3.50;1.10;;;;;;;;;;5020394;28;20103;-67
2023/12/10 13:01:19;;;;;;;3.28;1.15;;;;;;;;;;5035105;28;20060;-67
2023/12/10 13:03:44;;;;;;;0.77;0.70;;;;;;;;;;5041695;28;20382;-69
2023/12/10 13:06:10;;;;;;;1.95;1.65;;;;;;;;;;5040960;28;20131;-69
2023/12/10 13:08:35;;;;;;;2.38;0.90;;;;;;;;;;5040227;28;20095;-68
2023/12/10 13:11:01;;;;;;;1.75;1.05;;;;;;;;;;5040457;28;20029;-68
2023/12/10 13:13:26;;;;;;;3.15;1.20;;;;;;;;;;5040805;28;20049;-68
2023/12/10 13:15:52;;;;;;;3.72;0.95;;;;;;;;;;5047269;28;20053;-68
2023/12/10 13:18:18;;;;;;;4.18;1.92;;;;;;;;;;5047761;28;20072;-68
2023/12/10 13:20:43;;;;;;;3.45;1.25;;;;;;;;;;5049202;28;20140;-67
2023/12/10 13:23:10;;;;;;;6.07;0.95;;;;;;;;;;5049766;28;20040;-67
2023/12/10 13:25:35;;;;;;;1.60;0.95;;;;;;;;;;5048590;28;20499;-67
2023/12/10 13:28:00;;;;;;;1.70;1.02;;;;;;;;;;5045077;28;20099;-67
2023/12/10 13:30:26;;;;;;;6.68;1.45;;;;;;;;;;5047100;28;20039;-67
2023/12/10 13:32:51;;;;;;;2.08;0.88;;;;;;;;;;5047785;28;20045;-68
2023/12/10 13:35:17;;;;;;;4.93;0.88;;;;;;;;;;5039138;28;20094;-68
2023/12/10 13:37:43;;;;;;;4.05;0.95;;;;;;;;;;5040107;28;20045;-68
2023/12/10 13:40:09;;;;;;;8.38;1.60;;;;;;;;;;5055219;28;20048;-67
2023/12/10 13:42:35;;;;;;;3.35;1.02;;;;;;;;;;5051812;28;20070;-67
2023/12/10 13:45:00;;;;;;;1.88;0.55;;;;;;;;;;5048370;28;20653;-68
2023/12/10 13:47:26;;;;;;;4.57;0.93;;;;;;;;;;5051361;28;20052;-68
2023/12/10 13:49:51;;;;;;;5.50;1.17;;;;;;;;;;5054554;28;20044;-67
2023/12/10 13:52:16;;;;;;;2.55;0.50;;;;;;;;;;5054026;28;20295;-67
2023/12/10 13:54:42;;;;;;;1.98;0.90;;;;;;;;;;5041552;28;21015;-68
2023/12/10 13:57:07;;;;;;;3.83;1.20;;;;;;;;;;5042823;28;20098;-67
2023/12/10 13:59:33;;;;;;;1.10;0.35;;;;;;;;;;5039565;28;20045;-68
2023/12/10 14:01:58;;;;;;;11.25;1.27;;;;;;;;;;5047588;28;20079;-68
2023/12/10 14:04:23;;;;;;;6.30;0.90;;;;;;;;;;5053134;28;20048;-67
2023/12/10 14:06:49;;;;;;;4.95;1.10;;;;;;;;;;5048197;28;20129;-68
2023/12/10 14:09:14;;;;;;;3.20;0.85;;;;;;;;;;5041944;28;20061;-68
2023/12/10 14:11:40;;;;;;;2.95;0.88;;;;;;;;;;5042028;28;20412;-68
2023/12/10 14:14:05;;;;;;;8.80;1.58;;;;;;;;;;5049356;28;20511;-68
2023/12/10 14:16:30;;;;;;;1.83;0.82;;;;;;;;;;5046429;28;20487;-68
2023/12/10 14:18:56;;;;;;;2.75;0.73;;;;;;;;;;5040435;28;20047;-67
2023/12/10 14:21:25;;;;;;;1.90;0.90;;;;;;;;;;5040465;28;20160;-67
2023/12/10 14:23:50;;;;;;;7.55;0.93;;;;;;;;;;5040012;28;20622;-67
2023/12/10 14:26:15;;;;;;;2.17;0.60;;;;;;;;;;5046604;28;20043;-68
2023/12/10 14:28:41;;;;;;;4.22;1.05;;;;;;;;;;5049152;28;20096;-67
2023/12/10 14:31:06;;;;;;;0.82;0.70;;;;;;;;;;5039686;28;20144;-68
2023/12/10 14:33:32;;;;;;;4.85;1.02;;;;;;;;;;5048347;28;20056;-67